My Meet Scores
Jocelyn Frump, Kinetic Gymnastics - MyMeetScores.com
Top100 | Top Teams | Upcoming Meets | Completed Meets | Latest | Add Scores | Help| Support | Bookmark and Share

Jocelyn Frump, Kinetic Gymnastics
Personal Bests
LevelVault BarsBeamFloorAA
49.1008.050 7.9007.70032.750
XG9.2008.700 9.3509.17535.500
XP8.9008.550 9.0009.00035.350
XS9.2009.400 9.4009.40036.700
Meet Scores
Date Meet Team Session Level Division Vault Bars Beam Floor AA
2018-04-27 2018 Colorado XP, XD State Championships Kinetic Gymnastics 2 XP Platinum 2 B 8.475 17 7.250 17 8.600 12 8.750 15 33.075 17
2018-04-07 Up In The Air Kinetic Gymnastics 6 XP Younger 8.900 53T 8.300 51T 8.500 43T 8.850 41T 34.550 49
2018-03-17 Mildred C. Burnham Invitational Kinetic Gymnastics 4 XP All 8.700 8 8.400 5 8.200 6 8.550 8 33.850 8T
2018-03-03 Cheryl Baits Memorial Classic Kinetic Gymnastics 5 XP Child 8.900 18 7.600 22 8.500 15 9.000 18 34.000 22
2018-02-24 Treasure Island Invite Kinetic Gymnastics 1 XP All 8.300 6T 7.800 12 8.550 6 8.500 10 33.150 11
2018-01-05 Coloradical Classic Kinetic Gymnastics 4 XP Senior 1 8.850 10T 8.550 10 9.000 2 8.950 10 35.350 7T
2017-04-20 2017 Colorado XCEL Gold State Championship Kinetic Gymnastics 4 XG Junior B 8.900 8 7.450 15 7.800 14 9.175 8T 33.325 15
2017-04-01 Stars Of Xcel Spring Invitational Kinetic Gymnastics 5 XG Senior 9.000 5 8.700 10 8.800 7 9.000 9 35.500 5
2017-03-17 Peak Live Love Gymnastics 2017 Kinetic Gymnastics 4 XG Senior 8.900 2 7.700 7T 9.350 4T 8.700 9 34.650 7
2017-03-03 2017 CSI Colorado Sky Invitational Kinetic Gymnastics 5B XG Jr C 8.750 6T 7.700 10 9.000 7T 9.150 7T 34.600 10
2017-02-17 2017 Denver Winterfest Classic Kinetic Gymnastics 2A XG Junior 9.000 8T 7.700 23 8.600 13T 8.800 15T 34.100 17T
2017-01-28 Mile High Open Kinetic Gymnastics 3 XG Junior 8.675 2 6.850 8 7.675 5 8.725 5 31.925 5
2016-06-03 2016 Colorado XG State Meet Kinetic Gymnastics 2 XG JR A 8.800 1T 7.850 14 8.650 5 8.350 15 33.650 10T
2016-05-27 Cartwheel Carnival Kinetic Gymnastics 3 XG Child 8.800 6T 7.800 18 8.800 8T 9.100 10T 34.500 13T
2016-05-20 2016 Region 3 XG, XP Championships Kinetic Gymnastics 1 XG Child C 9.000 10 8.150 23 9.050 6T 8.925 15 35.125 20
2016-04-15 Airborne April Showers Xcel Meet Kinetic Gymnastics 3 XG All 8.400 5T 7.400 12T 9.100 5T 9.000 10 33.900 10
2016-03-04 2016 CSI Colorado Sky Invitational Kinetic Gymnastics 5B XG Jr B 8.750 5T 7.250 21T 9.025 7T 8.525 15T 33.550 19T
2015-05-29 2015 TIGAR Summer Safari Kinetic Gymnastics 5 XG Child 9.200 2 0.000 17 9.000 5 8.650 13 26.850 17
2015-05-15 Live, Love, And Gymnastics Kinetic Gymnastics 6 XG Youth 9.050 4 0.000 14T 8.000 11T 9.100 9T 26.150 13
2015-04-10 Hippity Hoppity V 2015 Kinetic Gymnastics 6 XG Child 8.600 5T 6.380 15 8.900 6T 8.500 12T 32.380 15
2015-03-21 Stars Of Xcel Spring Inviatational Kinetic Gymnastics 2 XG ChA 9.000 9 0.000 16 8.500 10 8.700 9 26.200 16
2014-06-07 Stars Of Xcel Summer Invitational Kinetic Gymnastics 1 XS Junior 9.000 6 9.200 5 9.100 6 9.400 4 36.700 4
2014-05-30 2014 AGA 80s Throwback Kinetic Gymnastics 1 XS Jr 9.000 5T 9.400 3 8.300 10 9.200 3 35.900 6
2014-05-02 2014 May Madness Invitational Kinetic Gymnastics 3 XS Jr A 9.200 6T 9.200 10T 9.400 4T 8.600 11T 36.400 6
2013-06-28 2013 Colorado Xcel Compulsory State Kinetic Gymnastics 4 4 Ch B 9.100 8 8.050 13 7.900 14 7.700 16 32.750 15T

www.lazysuits.com